createdAt,value
2022-08-19T00:02:02.442Z,18.50
2022-08-19T00:04:32.398Z,18.50
2022-08-19T00:07:01.973Z,18.40
2022-08-19T00:09:30.297Z,18.40
2022-08-19T00:11:59.427Z,18.30
2022-08-19T00:14:32.362Z,18.20
2022-08-19T00:17:04.348Z,18.10
2022-08-19T00:19:36.586Z,18.00
2022-08-19T00:22:06.245Z,18.00
2022-08-19T00:24:34.041Z,17.90
2022-08-19T00:27:25.245Z,17.90
2022-08-19T00:29:52.530Z,17.90
2022-08-19T00:32:21.601Z,17.70
2022-08-19T00:34:49.387Z,17.60
2022-08-19T00:37:17.218Z,17.50
2022-08-19T00:39:49.206Z,17.40
2022-08-19T00:42:19.868Z,17.40
2022-08-19T00:44:48.311Z,17.20
2022-08-19T00:47:21.297Z,17.10
2022-08-19T00:49:53.286Z,16.80
2022-08-19T00:52:34.347Z,16.50
2022-08-19T00:55:05.152Z,16.40
2022-08-19T00:57:41.265Z,16.30
2022-08-19T01:00:13.312Z,16.20
2022-08-19T01:02:43.021Z,16.00
2022-08-19T01:05:16.205Z,16.00
2022-08-19T01:07:45.167Z,15.90
2022-08-19T01:10:16.860Z,15.90
2022-08-19T01:12:45.796Z,15.80
2022-08-19T01:15:15.244Z,15.70
2022-08-19T01:17:46.215Z,15.70
2022-08-19T01:20:18.725Z,15.60
2022-08-19T01:22:54.041Z,15.60
2022-08-19T01:25:28.977Z,15.50
2022-08-19T01:27:57.064Z,15.50
2022-08-19T01:30:44.472Z,15.50
2022-08-19T01:33:22.317Z,15.40
2022-08-19T01:35:53.264Z,15.40
2022-08-19T01:38:26.011Z,15.40
2022-08-19T01:40:55.363Z,15.40
2022-08-19T01:43:23.677Z,15.30
2022-08-19T01:45:54.923Z,15.30
2022-08-19T01:48:24.071Z,15.30
2022-08-19T01:50:51.585Z,15.10
2022-08-19T01:53:19.630Z,15.10
2022-08-19T01:55:49.680Z,15.10
2022-08-19T01:58:24.192Z,15.10
2022-08-19T02:00:54.236Z,15.10
2022-08-19T02:03:25.320Z,15.10
2022-08-19T02:06:01.484Z,15.10
2022-08-19T02:08:33.087Z,15.20
2022-08-19T02:11:00.944Z,15.20
2022-08-19T02:13:29.246Z,15.20
2022-08-19T02:15:57.007Z,15.30
2022-08-19T02:18:29.861Z,15.30
2022-08-19T02:20:57.652Z,15.20
2022-08-19T02:23:25.325Z,15.20
2022-08-19T02:25:53.117Z,15.20
2022-08-19T02:28:23.025Z,15.20
2022-08-19T02:30:50.775Z,15.20
2022-08-19T02:33:18.731Z,15.20
2022-08-19T02:35:47.700Z,15.20
2022-08-19T02:38:27.693Z,15.20
2022-08-19T02:41:12.867Z,15.30
2022-08-19T02:43:44.437Z,15.30
2022-08-19T02:46:33.434Z,15.30
2022-08-19T02:49:04.875Z,15.30
2022-08-19T02:51:39.827Z,15.30
2022-08-19T02:54:10.895Z,15.20
2022-08-19T02:56:41.202Z,15.20
2022-08-19T02:59:13.486Z,15.10
2022-08-19T03:01:43.176Z,15.00
2022-08-19T03:04:15.776Z,14.90
2022-08-19T03:06:49.601Z,14.80
2022-08-19T03:09:19.276Z,14.60
2022-08-19T03:11:47.412Z,14.40
2022-08-19T03:14:16.411Z,14.40
2022-08-19T03:16:47.969Z,14.30
2022-08-19T03:19:18.584Z,14.10
2022-08-19T03:21:47.240Z,14.00
2022-08-19T03:24:16.509Z,14.00
2022-08-19T03:26:49.793Z,13.90
2022-08-19T03:29:30.799Z,13.80
2022-08-19T03:32:05.366Z,13.70
2022-08-19T03:34:37.088Z,13.60
2022-08-19T03:37:12.097Z,13.50
2022-08-19T03:39:44.726Z,13.40
2022-08-19T03:42:32.484Z,13.40
2022-08-19T03:45:02.221Z,13.40
2022-08-19T03:47:31.496Z,13.30
2022-08-19T03:49:59.130Z,13.30
2022-08-19T03:52:26.885Z,13.20
2022-08-19T03:54:55.192Z,13.10
2022-08-19T03:57:31.621Z,12.90
2022-08-19T04:00:12.656Z,12.90
2022-08-19T04:02:42.981Z,12.90
2022-08-19T04:05:29.577Z,12.90
2022-08-19T04:08:00.295Z,13.00
2022-08-19T04:10:29.326Z,12.90
2022-08-19T04:12:57.008Z,12.90
2022-08-19T04:15:24.807Z,13.00
2022-08-19T04:17:55.851Z,13.00
2022-08-19T04:20:23.628Z,13.00
2022-08-19T04:22:51.303Z,13.00
2022-08-19T04:25:20.197Z,13.10
2022-08-19T04:27:48.018Z,13.10
2022-08-19T04:30:16.768Z,13.10
2022-08-19T04:32:45.450Z,13.10
2022-08-19T04:35:17.026Z,13.10
2022-08-19T04:37:46.391Z,13.10
2022-08-19T04:40:32.608Z,13.10
2022-08-19T04:43:02.484Z,13.10
2022-08-19T04:45:39.532Z,13.00
2022-08-19T04:48:26.449Z,13.10
2022-08-19T04:51:00.193Z,13.00
2022-08-19T04:53:37.661Z,13.00
2022-08-19T04:56:15.496Z,13.00
2022-08-19T04:58:45.624Z,13.00
2022-08-19T05:01:21.223Z,12.90
2022-08-19T05:03:50.185Z,12.90
2022-08-19T05:06:20.493Z,12.90
2022-08-19T05:08:48.967Z,12.90
2022-08-19T05:11:26.632Z,12.80
2022-08-19T05:13:57.901Z,12.80
2022-08-19T05:16:27.317Z,12.70
2022-08-19T05:19:15.071Z,12.70
2022-08-19T05:22:03.429Z,12.60
2022-08-19T05:24:35.238Z,12.70
2022-08-19T05:27:03.823Z,12.60
2022-08-19T05:29:36.415Z,12.60
2022-08-19T05:32:09.389Z,12.60
2022-08-19T05:34:39.456Z,12.60
2022-08-19T05:37:08.757Z,12.60
2022-08-19T05:39:38.972Z,12.50
2022-08-19T05:42:09.327Z,12.50
2022-08-19T05:44:45.049Z,12.50
2022-08-19T05:47:15.904Z,12.50
2022-08-19T05:49:46.960Z,12.50
2022-08-19T05:52:16.999Z,12.50
2022-08-19T05:54:51.355Z,12.40
2022-08-19T05:57:20.462Z,12.40
2022-08-19T05:59:52.654Z,12.50
2022-08-19T06:02:29.760Z,12.50
2022-08-19T06:04:57.557Z,12.50
2022-08-19T06:07:25.698Z,12.60
2022-08-19T06:10:00.215Z,12.60
2022-08-19T06:12:34.227Z,12.70
2022-08-19T06:15:10.310Z,12.70
2022-08-19T06:17:38.381Z,12.70
2022-08-19T06:20:14.417Z,12.70
2022-08-19T06:22:44.963Z,12.80
2022-08-19T06:25:14.150Z,12.80
2022-08-19T06:30:31.023Z,12.90
2022-08-19T06:32:58.627Z,12.90
2022-08-19T06:35:26.442Z,13.00
2022-08-19T06:37:54.703Z,13.10
2022-08-19T06:40:24.335Z,13.10
2022-08-19T06:42:54.424Z,13.20
2022-08-19T06:45:35.488Z,13.20
2022-08-19T06:48:08.419Z,13.30
2022-08-19T06:50:36.731Z,13.30
2022-08-19T06:53:08.753Z,13.40
2022-08-19T06:55:36.458Z,13.40
2022-08-19T06:58:05.920Z,13.40
2022-08-19T07:00:34.868Z,13.50
2022-08-19T07:03:06.047Z,13.50
2022-08-19T07:05:45.520Z,13.50
2022-08-19T07:08:14.752Z,13.60
2022-08-19T07:10:46.699Z,13.60
2022-08-19T07:13:14.422Z,13.80
2022-08-19T07:15:42.309Z,13.90
2022-08-19T07:18:11.918Z,13.90
2022-08-19T07:20:42.012Z,14.00
2022-08-19T07:23:16.255Z,14.10
2022-08-19T07:25:44.951Z,14.20
2022-08-19T07:28:23.936Z,14.30
2022-08-19T07:30:53.568Z,14.40
2022-08-19T07:33:21.721Z,14.50
2022-08-19T07:35:50.944Z,14.60
2022-08-19T07:38:22.157Z,14.60
2022-08-19T07:40:50.049Z,14.70
2022-08-19T07:43:21.575Z,14.80
2022-08-19T07:45:51.200Z,14.80
2022-08-19T07:48:20.841Z,14.80
2022-08-19T07:50:49.741Z,14.90
2022-08-19T07:53:17.532Z,15.00
2022-08-19T07:55:49.001Z,15.10
2022-08-19T07:58:20.142Z,15.30
2022-08-19T08:00:50.819Z,15.40
2022-08-19T08:03:44.624Z,15.50
2022-08-19T08:06:32.311Z,15.50
2022-08-19T08:09:12.966Z,15.60
2022-08-19T08:11:50.822Z,15.70
2022-08-19T08:14:29.613Z,15.90
2022-08-19T08:17:04.045Z,16.00
2022-08-19T08:19:40.019Z,16.20
2022-08-19T08:22:07.965Z,16.20
2022-08-19T08:24:37.015Z,16.20
2022-08-19T08:27:11.368Z,16.10
2022-08-19T08:29:45.351Z,16.00
2022-08-19T08:32:14.046Z,16.00
2022-08-19T08:34:44.363Z,16.00
2022-08-19T08:37:16.120Z,15.90
2022-08-19T08:39:44.011Z,16.00
2022-08-19T08:42:48.238Z,16.00
2022-08-19T08:45:18.323Z,16.10
2022-08-19T08:47:51.144Z,16.20
2022-08-19T08:50:37.290Z,16.20
2022-08-19T08:53:09.808Z,16.30
2022-08-19T08:55:38.172Z,16.40
2022-08-19T08:58:13.066Z,16.50
2022-08-19T09:00:49.344Z,16.70
2022-08-19T09:03:24.553Z,16.90
2022-08-19T09:06:03.908Z,17.00
2022-08-19T09:08:34.755Z,17.10
2022-08-19T09:11:08.339Z,17.20
2022-08-19T09:13:53.298Z,17.30
2022-08-19T09:16:31.511Z,17.20
2022-08-19T09:20:23.150Z,17.20
2022-08-19T09:26:03.940Z,16.90
2022-08-19T09:28:32.662Z,17.00
2022-08-19T09:31:03.041Z,17.10
2022-08-19T09:33:32.417Z,17.30
2022-08-19T09:36:34.702Z,17.40
2022-08-19T09:39:14.835Z,17.40
2022-08-19T09:41:49.149Z,17.40
2022-08-19T09:44:18.229Z,17.20
2022-08-19T09:46:48.414Z,17.30
2022-08-19T09:49:22.536Z,17.40
2022-08-19T09:52:06.984Z,17.40
2022-08-19T09:54:35.394Z,17.50
2022-08-19T09:57:07.581Z,17.50
2022-08-19T09:59:36.019Z,17.60
2022-08-19T10:02:10.979Z,17.70
2022-08-19T10:04:57.694Z,17.80
2022-08-19T10:07:36.168Z,17.90
2022-08-19T10:10:07.323Z,17.90
2022-08-19T10:12:38.127Z,17.90
2022-08-19T10:15:07.611Z,17.90
2022-08-19T10:17:38.897Z,18.10
2022-08-19T10:20:07.826Z,18.20
2022-08-19T10:22:38.551Z,18.30
2022-08-19T10:25:08.083Z,18.40
2022-08-19T10:27:39.123Z,18.40
2022-08-19T10:30:09.937Z,18.30
2022-08-19T10:32:38.804Z,18.30
2022-08-19T10:35:21.852Z,18.30
2022-08-19T10:38:02.000Z,18.30
2022-08-19T10:40:30.431Z,18.30
2022-08-19T10:43:08.297Z,18.30
2022-08-19T10:45:53.889Z,18.40
2022-08-19T10:48:24.823Z,18.50
2022-08-19T10:51:30.931Z,18.60
2022-08-19T10:54:01.097Z,18.60
2022-08-19T10:56:48.419Z,18.50
2022-08-19T10:59:16.887Z,18.40
2022-08-19T11:01:47.485Z,18.40
2022-08-19T11:04:21.804Z,18.50
2022-08-19T11:07:01.814Z,18.70
2022-08-19T11:09:34.177Z,18.90
2022-08-19T11:12:05.013Z,19.00
2022-08-19T11:14:35.035Z,19.10
2022-08-19T11:17:04.853Z,19.20
2022-08-19T11:19:33.067Z,19.30
2022-08-19T11:25:24.880Z,19.30
2022-08-19T11:27:55.019Z,19.20
2022-08-19T11:30:25.419Z,19.20
2022-08-19T11:33:25.851Z,19.10
2022-08-19T11:35:56.632Z,19.20
2022-08-19T11:38:28.880Z,19.40
2022-08-19T11:41:02.311Z,19.60
2022-08-19T11:43:37.148Z,19.90
2022-08-19T11:46:07.962Z,20.00
2022-08-19T11:48:36.896Z,20.20
2022-08-19T11:51:11.667Z,20.10
2022-08-19T11:53:40.210Z,20.00
2022-08-19T11:56:10.823Z,19.90
2022-08-19T11:58:41.015Z,19.90
2022-08-19T12:01:17.115Z,20.00
2022-08-19T12:04:03.812Z,20.20
2022-08-19T12:06:57.559Z,20.40
2022-08-19T12:09:56.856Z,20.40
2022-08-19T12:12:40.421Z,20.30
2022-08-19T12:15:21.066Z,20.20
2022-08-19T12:17:48.978Z,20.20
2022-08-19T12:20:18.116Z,20.20
2022-08-19T12:22:47.615Z,20.40
2022-08-19T12:25:18.176Z,20.50
2022-08-19T12:27:57.218Z,20.60
2022-08-19T12:30:26.707Z,20.70
2022-08-19T12:32:55.539Z,20.70
2022-08-19T12:35:25.990Z,20.80
2022-08-19T12:37:57.707Z,20.90
2022-08-19T12:40:26.307Z,20.80
2022-08-19T12:42:55.147Z,20.60
2022-08-19T12:45:23.654Z,20.60
2022-08-19T12:47:55.003Z,20.50
2022-08-19T12:50:23.346Z,20.40
2022-08-19T12:52:51.446Z,20.40
2022-08-19T12:55:19.853Z,20.20
2022-08-19T12:57:49.654Z,20.00
2022-08-19T13:00:21.977Z,19.90
2022-08-19T13:02:52.374Z,19.90
2022-08-19T13:05:27.354Z,20.10
2022-08-19T13:07:57.534Z,20.20
2022-08-19T13:10:29.027Z,20.30
2022-08-19T13:12:57.869Z,20.30
2022-08-19T13:15:29.559Z,20.50
2022-08-19T13:17:58.864Z,21.20
2022-08-19T13:20:27.385Z,22.00
2022-08-19T13:22:56.269Z,22.60
2022-08-19T13:25:24.073Z,22.80
2022-08-19T13:27:52.568Z,22.90
2022-08-19T13:30:40.631Z,22.80
2022-08-19T13:33:15.214Z,22.40
2022-08-19T13:35:58.671Z,22.00
2022-08-19T13:38:26.355Z,21.80
2022-08-19T13:40:55.239Z,21.40
2022-08-19T13:43:24.228Z,21.40
2022-08-19T13:45:56.501Z,21.90
2022-08-19T13:48:27.503Z,22.40
2022-08-19T13:50:55.628Z,22.60
2022-08-19T13:53:23.600Z,22.90
2022-08-19T13:55:52.177Z,23.00
2022-08-19T13:58:19.891Z,23.40
2022-08-19T14:00:47.735Z,23.90
2022-08-19T14:03:16.087Z,24.10
2022-08-19T14:05:43.800Z,23.90
2022-08-19T14:08:11.456Z,23.60
2022-08-19T14:10:39.265Z,23.50
2022-08-19T14:13:06.929Z,23.00
2022-08-19T14:15:34.723Z,22.60
2022-08-19T14:18:02.326Z,22.20
2022-08-19T14:20:30.395Z,21.90
2022-08-19T14:22:58.058Z,21.60
2022-08-19T14:25:28.693Z,21.40
2022-08-19T14:27:57.064Z,21.30
2022-08-19T14:30:28.674Z,21.30
2022-08-19T14:32:57.693Z,21.70
2022-08-19T14:35:27.935Z,22.90
2022-08-19T14:37:56.407Z,24.00
2022-08-19T14:40:30.185Z,25.10
2022-08-19T14:43:04.974Z,25.40
2022-08-19T14:45:36.810Z,25.30
2022-08-19T14:48:07.535Z,24.90
2022-08-19T14:50:37.703Z,24.80
2022-08-19T14:53:12.659Z,24.60
2022-08-19T14:55:47.078Z,24.30
2022-08-19T14:58:29.419Z,24.00
2022-08-19T15:01:00.042Z,23.90
2022-08-19T15:03:29.226Z,24.40
2022-08-19T15:05:58.985Z,25.10
2022-08-19T15:08:28.893Z,25.70
2022-08-19T15:10:58.281Z,25.70
2022-08-19T15:13:28.080Z,25.10
2022-08-19T15:15:56.504Z,24.40
2022-08-19T15:18:25.147Z,24.20
2022-08-19T15:20:52.856Z,23.90
2022-08-19T15:23:22.146Z,23.90
2022-08-19T15:25:54.582Z,23.90
2022-08-19T15:28:24.332Z,24.20
2022-08-19T15:30:53.102Z,24.50
2022-08-19T15:33:21.242Z,24.80
2022-08-19T15:35:51.601Z,24.50
2022-08-19T15:38:22.271Z,24.30
2022-08-19T15:40:53.225Z,24.70
2022-08-19T15:43:24.187Z,25.20
2022-08-19T15:45:54.803Z,25.20
2022-08-19T15:48:22.638Z,24.50
2022-08-19T15:50:50.984Z,23.80
2022-08-19T15:53:18.830Z,23.20
2022-08-19T15:55:48.552Z,22.70
2022-08-19T15:58:51.904Z,22.40
2022-08-19T16:01:41.010Z,22.40
2022-08-19T16:04:27.254Z,23.40
2022-08-19T16:07:00.663Z,24.10
2022-08-19T16:09:31.910Z,24.40
2022-08-19T16:12:03.713Z,24.10
2022-08-19T16:14:34.866Z,23.90
2022-08-19T16:17:02.567Z,24.10
2022-08-19T16:19:32.576Z,24.40
2022-08-19T16:22:00.272Z,25.20
2022-08-19T16:24:28.614Z,25.80
2022-08-19T16:26:57.329Z,25.90
2022-08-19T16:29:34.603Z,25.30
2022-08-19T16:32:11.693Z,24.40
2022-08-19T16:34:41.471Z,23.60
2022-08-19T16:37:10.185Z,23.00
2022-08-19T16:39:38.232Z,22.50
2022-08-19T16:42:08.352Z,22.10
2022-08-19T16:44:37.104Z,21.60
2022-08-19T16:47:04.976Z,21.30
2022-08-19T16:49:52.869Z,21.40
2022-08-19T16:52:21.336Z,21.90
2022-08-19T16:54:49.092Z,22.00
2022-08-19T16:57:17.065Z,22.30
2022-08-19T16:59:48.874Z,22.90
2022-08-19T17:02:19.525Z,23.70
2022-08-19T17:04:57.421Z,24.50
2022-08-19T17:07:33.060Z,25.10
2022-08-19T17:10:03.793Z,25.40
2022-08-19T17:12:31.981Z,25.70
2022-08-19T17:15:05.273Z,25.90
2022-08-19T17:17:32.983Z,26.00
2022-08-19T17:20:02.744Z,25.20
2022-08-19T17:22:30.493Z,24.00
2022-08-19T17:24:58.644Z,23.30
2022-08-19T17:27:32.333Z,23.10
2022-08-19T17:30:02.816Z,22.90
2022-08-19T17:32:35.075Z,22.30
2022-08-19T17:35:04.802Z,21.70
2022-08-19T17:37:34.318Z,21.80
2022-08-19T17:40:07.704Z,22.50
2022-08-19T17:42:36.920Z,23.30
2022-08-19T17:45:06.009Z,23.30
2022-08-19T17:47:35.268Z,23.60
2022-08-19T17:50:05.143Z,23.40
2022-08-19T17:52:33.047Z,23.40
2022-08-19T17:55:02.036Z,23.40
2022-08-19T17:57:29.655Z,23.50
2022-08-19T17:59:58.649Z,23.70
2022-08-19T18:02:26.905Z,23.50
2022-08-19T18:04:57.621Z,22.90
2022-08-19T18:07:25.354Z,22.40
2022-08-19T18:09:55.006Z,22.20
2022-08-19T18:12:26.679Z,22.10
2022-08-19T18:14:54.543Z,22.40
2022-08-19T18:17:23.307Z,22.70
2022-08-19T18:19:51.031Z,22.80
2022-08-19T18:22:22.586Z,22.90
2022-08-19T18:24:51.022Z,23.00
2022-08-19T18:27:19.032Z,22.90
2022-08-19T18:29:46.735Z,23.00
2022-08-19T18:32:16.664Z,23.10
2022-08-19T18:34:46.098Z,23.10
2022-08-19T18:37:13.764Z,23.00
2022-08-19T18:40:00.192Z,22.90
2022-08-19T18:42:46.419Z,22.90
2022-08-19T18:45:32.574Z,22.70
2022-08-19T18:48:27.731Z,22.50
2022-08-19T18:51:00.031Z,22.40
2022-08-19T18:53:30.762Z,22.00
2022-08-19T18:55:59.535Z,21.90
2022-08-19T18:58:34.614Z,21.70
2022-08-19T19:01:11.740Z,21.40
2022-08-19T19:03:52.989Z,21.20
2022-08-19T19:06:27.646Z,20.90
2022-08-19T19:08:55.996Z,20.40
2022-08-19T19:11:30.196Z,19.90
2022-08-19T19:13:58.088Z,19.30
2022-08-19T19:16:25.745Z,18.90
2022-08-19T19:18:53.466Z,18.60
2022-08-19T19:21:23.182Z,18.30
2022-08-19T19:23:54.901Z,18.00
2022-08-19T19:26:23.080Z,17.90
2022-08-19T19:28:51.484Z,17.60
2022-08-19T19:31:26.892Z,17.40
2022-08-19T19:33:56.221Z,17.30
2022-08-19T19:36:24.087Z,17.10
2022-08-19T19:38:52.181Z,17.00
2022-08-19T19:41:25.157Z,16.80
2022-08-19T19:44:16.360Z,16.70
2022-08-19T19:46:42.780Z,16.60
2022-08-19T19:49:10.980Z,16.50
2022-08-19T19:51:39.668Z,16.40
2022-08-19T19:54:14.067Z,16.30
2022-08-19T19:56:48.727Z,16.20
2022-08-19T19:59:17.653Z,16.10
2022-08-19T20:01:47.045Z,16.00
2022-08-19T20:04:16.389Z,16.00
2022-08-19T20:06:45.865Z,15.90
2022-08-19T20:09:19.862Z,15.90
2022-08-19T20:11:53.472Z,15.80
2022-08-19T20:14:23.062Z,15.70
2022-08-19T20:16:52.317Z,15.60
2022-08-19T20:19:26.910Z,15.60
2022-08-19T20:21:57.451Z,15.50
2022-08-19T20:24:28.649Z,15.40
2022-08-19T20:26:56.678Z,15.40
2022-08-19T20:29:38.184Z,15.40
2022-08-19T20:32:08.486Z,15.30
2022-08-19T20:34:39.401Z,15.30
2022-08-19T20:37:09.571Z,15.20
2022-08-19T20:39:38.234Z,15.10
2022-08-19T20:42:06.065Z,15.10
2022-08-19T20:44:33.984Z,15.10
2022-08-19T20:47:04.044Z,15.00
2022-08-19T20:49:32.647Z,15.00
2022-08-19T20:52:00.402Z,15.00
2022-08-19T20:54:28.598Z,15.10
2022-08-19T20:56:57.114Z,15.10
2022-08-19T20:59:26.560Z,15.20
2022-08-19T21:01:54.317Z,15.10
2022-08-19T21:04:22.408Z,15.10
2022-08-19T21:06:50.791Z,15.10
2022-08-19T21:09:19.058Z,15.00
2022-08-19T21:11:47.099Z,15.00
2022-08-19T21:14:14.967Z,14.90
2022-08-19T21:16:42.609Z,14.90
2022-08-19T21:19:10.292Z,14.80
2022-08-19T21:21:38.012Z,14.70
2022-08-19T21:24:05.835Z,14.70
2022-08-19T21:26:33.517Z,14.70
2022-08-19T21:29:01.572Z,14.60
2022-08-19T21:31:29.467Z,14.50
2022-08-19T21:33:57.570Z,14.40
2022-08-19T21:36:25.444Z,14.40
2022-08-19T21:38:53.175Z,14.40
2022-08-19T21:41:21.004Z,14.30
2022-08-19T21:43:48.918Z,14.30
2022-08-19T21:46:16.639Z,14.20
2022-08-19T21:48:44.532Z,14.20
2022-08-19T21:51:12.711Z,14.20
2022-08-19T21:53:41.542Z,14.20
2022-08-19T21:56:13.032Z,14.20
2022-08-19T21:58:41.716Z,14.10
2022-08-19T22:01:10.619Z,14.10
2022-08-19T22:03:38.935Z,14.10
2022-08-19T22:06:07.421Z,14.10
2022-08-19T22:08:36.284Z,14.00
2022-08-19T22:11:04.713Z,14.00
2022-08-19T22:13:39.935Z,14.00
2022-08-19T22:16:09.609Z,14.10
2022-08-19T22:18:38.373Z,14.00
2022-08-19T22:21:11.261Z,14.00
2022-08-19T22:23:42.523Z,14.00
2022-08-19T22:26:12.230Z,14.00
2022-08-19T22:28:40.967Z,14.00
2022-08-19T22:31:09.727Z,13.90
2022-08-19T22:33:38.346Z,13.90
2022-08-19T22:36:10.259Z,13.90
2022-08-19T22:38:38.398Z,13.90
2022-08-19T22:41:07.977Z,13.90
2022-08-19T22:43:37.645Z,13.90
2022-08-19T22:46:16.802Z,13.90
2022-08-19T22:48:46.699Z,13.90
2022-08-19T22:51:33.616Z,13.90
2022-08-19T22:54:01.864Z,13.80
2022-08-19T22:56:30.407Z,13.70
2022-08-19T22:58:58.387Z,13.70
2022-08-19T23:01:30.561Z,13.70
2022-08-19T23:04:00.097Z,13.60
2022-08-19T23:06:33.557Z,13.60
2022-08-19T23:09:09.790Z,13.60
2022-08-19T23:11:41.703Z,13.60
2022-08-19T23:14:11.551Z,13.50
2022-08-19T23:16:41.655Z,13.50
2022-08-19T23:19:10.820Z,13.50
2022-08-19T23:21:43.426Z,13.50
2022-08-19T23:24:11.604Z,13.40
2022-08-19T23:26:59.622Z,13.40
2022-08-19T23:29:45.972Z,13.40
2022-08-19T23:32:16.224Z,13.40
2022-08-19T23:34:45.335Z,13.40
2022-08-19T23:37:13.233Z,13.30
2022-08-19T23:39:43.574Z,13.30
2022-08-19T23:42:13.791Z,13.20
2022-08-19T23:44:51.232Z,13.20
2022-08-19T23:47:21.574Z,13.20
2022-08-19T23:49:49.475Z,13.30
2022-08-19T23:52:17.263Z,13.30
2022-08-19T23:54:45.093Z,13.20
2022-08-19T23:57:13.482Z,13.30
2022-08-19T23:59:43.122Z,13.30
